Meath Environmental Platform

Observations for Trim Market St

Time AQI Temp °C Hum % Pres Pa CO μg/m³ H₂S μg/m³ NO μg/m³ NO₂ μg/m³ O₃ μg/m³ SO₂ μg/m³ PM1 μg/m³ PM2.5 μg/m³ PM10 μg/m³
Friday 21 August 2026
22:46 2 13.1 69 56,577 0.26 0 2.63 12.06 56.93 0 1.43 3.11 6.26
22:45 2 13.2 69 56,601 0.28 0 2.88 10.9 55.11 0 2.14 4.58 6.9
22:44 2 13.2 69 56,627 0.3 0 2.89 15.34 45.2 0 0 1.65 3.09
22:43 2 13.2 69 56,654 0.28 0 2.95 19.26 46.41 0 2.14 3.61 5.62
22:42 2 13.3 68 56,683 0.26 0 2.54 12.51 52.77 0 2.14 3.61 5.62
22:41 2 13.3 68 56,706 0.26 0 2.45 14.25 49.08 0 0.71 2.64 5.62
22:40 2 13.3 68 56,732 0.27 0 2.23 14.7 48.48 0 1.43 3.13 5.62
22:39 2 13.3 68 56,756 0.26 0 2.1 11.23 61.94 0 1.43 2.65 4.98
22:38 2 13.3 68 56,782 0.26 0 1.93 11.73 60.03 0 2.14 3.13 4.98
22:37 2 13.4 68 56,812 0.26 0 2.62 11.81 59.46 0 0.71 3.14 4.98
22:36 2 13.4 68 56,841 0.27 0 3.04 11.64 59.99 0 1.43 2.17 4.98
22:33 2 13.4 68 56,868 0.29 0 2.91 15.91 49.97 0 1.43 3.15 4.97
22:32 2 13.4 68 56,902 0.25 0 2.91 10.52 63.86 0 1.43 3.65 5.61
22:27 2 13.6 67 57,049 0.29 0 2.46 10.92 62.73 0 1.43 3.18 4.96
22:25 2 13.7 67 57,110 0.24 0 2.39 10.77 66.59 0 1.43 2.7 5.6
22:18 2 13.8 67 57,284 0.21 0 2.26 9.79 67.92 0 1.43 2.72 4.29
22:17 2 13.9 66 57,309 0.2 0 2.22 11.74 67.21 0 1.43 3.22 5.59
22:16 2 13.9 66 57,334 0.21 0 2.08 11.54 61.89 0 1.43 2.73 4.29
22:15 2 13.9 66 57,358 0.21 0 1.98 15.08 56.17 0 1.43 2.74 4.29
22:13 2 14 66 57,405 0.2 0 1.99 9.75 62.47 0 1.43 2.75 4.28